sensor_id;sensor_type;location;lat;lon;timestamp;pressure;altitude;pressure_sealevel;temperature;humidity
71194;BME280;58903;47.210;8.618;2023-05-29T00:00:47;94081.47;;;28.93;40.55
71194;BME280;58903;47.210;8.618;2023-05-29T00:03:13;94077.53;;;28.88;41.64
71194;BME280;58903;47.210;8.618;2023-05-29T00:05:58;94075.19;;;28.92;41.12
71194;BME280;58903;47.210;8.618;2023-05-29T00:08:36;94082.97;;;28.94;41.03
71194;BME280;58903;47.210;8.618;2023-05-29T00:11:33;94080.72;;;28.92;40.68
71194;BME280;58903;47.210;8.618;2023-05-29T00:14:35;94088.28;;;28.92;41.37
71194;BME280;58903;47.210;8.618;2023-05-29T00:20:18;94083.06;;;28.88;41.10
71194;BME280;58903;47.210;8.618;2023-05-29T00:22:47;94084.03;;;28.91;41.28
71194;BME280;58903;47.210;8.618;2023-05-29T00:25:40;94081.06;;;28.89;40.69
71194;BME280;58903;47.210;8.618;2023-05-29T00:28:17;94085.84;;;28.88;40.92
71194;BME280;58903;47.210;8.618;2023-05-29T00:31:00;94081.19;;;28.83;41.27
71194;BME280;58903;47.210;8.618;2023-05-29T00:33:26;94075.88;;;28.85;40.94
71194;BME280;58903;47.210;8.618;2023-05-29T00:36:12;94081.41;;;28.85;41.26
71194;BME280;58903;47.210;8.618;2023-05-29T00:38:57;94079.38;;;28.86;40.89
71194;BME280;58903;47.210;8.618;2023-05-29T00:41:32;94083.22;;;28.83;40.52
71194;BME280;58903;47.210;8.618;2023-05-29T00:44:24;94075.13;;;28.85;40.73
71194;BME280;58903;47.210;8.618;2023-05-29T00:47:08;94074.91;;;28.83;40.98
71194;BME280;58903;47.210;8.618;2023-05-29T00:49:44;94072.69;;;28.81;41.12
71194;BME280;58903;47.210;8.618;2023-05-29T00:52:36;94071.41;;;28.82;40.79
71194;BME280;58903;47.210;8.618;2023-05-29T00:55:11;94073.97;;;28.80;40.47
71194;BME280;58903;47.210;8.618;2023-05-29T00:57:39;94075.47;;;28.81;41.07
71194;BME280;58903;47.210;8.618;2023-05-29T01:00:07;94075.06;;;28.77;40.81
71194;BME280;58903;47.210;8.618;2023-05-29T01:02:45;94072.41;;;28.72;40.93
71194;BME280;58903;47.210;8.618;2023-05-29T01:05:14;94077.19;;;28.71;41.63
71194;BME280;58903;47.210;8.618;2023-05-29T01:07:49;94073.56;;;28.76;41.40
71194;BME280;58903;47.210;8.618;2023-05-29T01:10:18;94081.66;;;28.74;40.95
71194;BME280;58903;47.210;8.618;2023-05-29T01:12:53;94071.16;;;28.73;41.55
71194;BME280;58903;47.210;8.618;2023-05-29T01:16:07;94077.75;;;28.70;41.19
71194;BME280;58903;47.210;8.618;2023-05-29T01:18:57;94074.44;;;28.71;41.25
71194;BME280;58903;47.210;8.618;2023-05-29T01:24:56;94082.00;;;28.71;41.24
71194;BME280;58903;47.210;8.618;2023-05-29T01:27:26;94081.25;;;28.70;41.51
71194;BME280;58903;47.210;8.618;2023-05-29T01:30:14;94075.19;;;28.72;41.19
71194;BME280;58903;47.210;8.618;2023-05-29T01:32:48;94082.72;;;28.71;40.98
71194;BME280;58903;47.210;8.618;2023-05-29T01:35:25;94077.19;;;28.71;40.74
71194;BME280;58903;47.210;8.618;2023-05-29T01:38:12;94071.47;;;28.69;41.12
71194;BME280;58903;47.210;8.618;2023-05-29T01:40:43;94079.75;;;28.69;41.57
71194;BME280;58903;47.210;8.618;2023-05-29T01:43:32;94085.28;;;28.69;40.95
71194;BME280;58903;47.210;8.618;2023-05-29T01:46:32;94080.84;;;28.66;41.23
71194;BME280;58903;47.210;8.618;2023-05-29T01:49:17;94067.53;;;28.65;41.33
71194;BME280;58903;47.210;8.618;2023-05-29T01:51:59;94079.56;;;28.67;41.44
71194;BME280;58903;47.210;8.618;2023-05-29T01:54:39;94079.34;;;28.65;41.31
71194;BME280;58903;47.210;8.618;2023-05-29T01:57:21;94074.91;;;28.62;41.19
71194;BME280;58903;47.210;8.618;2023-05-29T02:00:06;94078.41;;;28.63;40.84
71194;BME280;58903;47.210;8.618;2023-05-29T02:02:59;94083.41;;;28.64;40.86
71194;BME280;58903;47.210;8.618;2023-05-29T02:05:29;94075.63;;;28.63;41.44
71194;BME280;58903;47.210;8.618;2023-05-29T02:07:57;94075.31;;;28.66;41.53
71194;BME280;58903;47.210;8.618;2023-05-29T02:10:25;94073.81;;;28.65;41.01
71194;BME280;58903;47.210;8.618;2023-05-29T02:13:12;94079.34;;;28.65;41.23
71194;BME280;58903;47.210;8.618;2023-05-29T02:16:04;94074.56;;;28.66;40.78
71194;BME280;58903;47.210;8.618;2023-05-29T02:18:36;94070.31;;;28.65;41.05
71194;BME280;58903;47.210;8.618;2023-05-29T02:21:05;94076.38;;;28.63;40.63
71194;BME280;58903;47.210;8.618;2023-05-29T02:27:30;94080.66;;;28.64;41.11
71194;BME280;58903;47.210;8.618;2023-05-29T02:30:27;94080.66;;;28.64;41.46
71194;BME280;58903;47.210;8.618;2023-05-29T02:33:24;94072.88;;;28.63;41.17
71194;BME280;58903;47.210;8.618;2023-05-29T02:36:15;94077.69;;;28.62;40.88
71194;BME280;58903;47.210;8.618;2023-05-29T02:38:43;94071.91;;;28.60;41.33
71194;BME280;58903;47.210;8.618;2023-05-29T02:41:10;94074.47;;;28.58;41.67
71194;BME280;58903;47.210;8.618;2023-05-29T02:43:38;94072.22;;;28.57;41.12
71194;BME280;58903;47.210;8.618;2023-05-29T02:46:16;94074.25;;;28.56;41.23
71194;BME280;58903;47.210;8.618;2023-05-29T02:48:51;94069.25;;;28.55;41.20
71194;BME280;58903;47.210;8.618;2023-05-29T02:51:52;94076.06;;;28.54;40.79
71194;BME280;58903;47.210;8.618;2023-05-29T02:55:01;94066.28;;;28.53;41.51
71194;BME280;58903;47.210;8.618;2023-05-29T02:57:27;94064.78;;;28.52;41.29
71194;BME280;58903;47.210;8.618;2023-05-29T02:59:56;94064.06;;;28.51;41.48
71194;BME280;58903;47.210;8.618;2023-05-29T03:02:27;94070.53;;;28.54;41.29
71194;BME280;58903;47.210;8.618;2023-05-29T03:05:12;94071.06;;;28.52;41.46
71194;BME280;58903;47.210;8.618;2023-05-29T03:07:47;94065.88;;;28.49;41.33
71194;BME280;58903;47.210;8.618;2023-05-29T03:10:16;94072.16;;;28.49;41.24
71194;BME280;58903;47.210;8.618;2023-05-29T03:13:00;94070.66;;;28.48;41.67
71194;BME280;58903;47.210;8.618;2023-05-29T03:15:33;94060.66;;;28.45;41.41
71194;BME280;58903;47.210;8.618;2023-05-29T03:18:08;94064.94;;;28.46;41.21
71194;BME280;58903;47.210;8.618;2023-05-29T03:21:00;94065.69;;;28.47;41.03
71194;BME280;58903;47.210;8.618;2023-05-29T03:23:48;94063.63;;;28.47;40.97
71194;BME280;58903;47.210;8.618;2023-05-29T03:26:19;94064.94;;;28.46;41.10
71194;BME280;58903;47.210;8.618;2023-05-29T03:29:19;94064.94;;;28.46;41.26
71194;BME280;58903;47.210;8.618;2023-05-29T03:32:15;94076.75;;;28.47;41.34
71194;BME280;58903;47.210;8.618;2023-05-29T03:38:15;94073.22;;;28.46;41.03
71194;BME280;58903;47.210;8.618;2023-05-29T03:40:41;94074.50;;;28.45;40.81
71194;BME280;58903;47.210;8.618;2023-05-29T03:43:10;94067.50;;;28.44;40.96
71194;BME280;58903;47.210;8.618;2023-05-29T03:45:38;94074.31;;;28.43;41.28
71194;BME280;58903;47.210;8.618;2023-05-29T03:48:09;94077.28;;;28.45;41.17
71194;BME280;58903;47.210;8.618;2023-05-29T03:50:45;94076.00;;;28.46;41.21
71194;BME280;58903;47.210;8.618;2023-05-29T03:53:13;94083.00;;;28.47;41.43
71194;BME280;58903;47.210;8.618;2023-05-29T03:55:40;94082.09;;;28.45;41.44
71194;BME280;58903;47.210;8.618;2023-05-29T03:58:07;94085.38;;;28.43;41.65
71194;BME280;58903;47.210;8.618;2023-05-29T04:00:38;94081.88;;;28.43;41.13
71194;BME280;58903;47.210;8.618;2023-05-29T04:03:08;94087.94;;;28.41;41.04
71194;BME280;58903;47.210;8.618;2023-05-29T04:05:36;94092.00;;;28.40;41.02
71194;BME280;58903;47.210;8.618;2023-05-29T04:08:04;94097.19;;;28.44;40.85
71194;BME280;58903;47.210;8.618;2023-05-29T04:10:32;94092.72;;;28.41;40.85
71194;BME280;58903;47.210;8.618;2023-05-29T04:13:03;94098.25;;;28.41;41.20
71194;BME280;58903;47.210;8.618;2023-05-29T04:15:33;94095.47;;;28.41;41.51
71194;BME280;58903;47.210;8.618;2023-05-29T04:18:08;94094.41;;;28.44;41.37
71194;BME280;58903;47.210;8.618;2023-05-29T04:20:37;94097.94;;;28.44;40.75
71194;BME280;58903;47.210;8.618;2023-05-29T04:23:08;94092.94;;;28.43;41.08
71194;BME280;58903;47.210;8.618;2023-05-29T04:25:37;94098.69;;;28.45;41.04
71194;BME280;58903;47.210;8.618;2023-05-29T04:28:07;94103.06;;;28.40;41.38
71194;BME280;58903;47.210;8.618;2023-05-29T04:30:41;94105.63;;;28.38;40.69
71194;BME280;58903;47.210;8.618;2023-05-29T04:33:20;94115.19;;;28.37;41.42
71194;BME280;58903;47.210;8.618;2023-05-29T04:36:01;94114.63;;;28.38;41.19
71194;BME280;58903;47.210;8.618;2023-05-29T04:38:59;94110.41;;;28.38;41.19
71194;BME280;58903;47.210;8.618;2023-05-29T04:41:35;94115.53;;;28.33;41.03
71194;BME280;58903;47.210;8.618;2023-05-29T04:44:11;94110.94;;;28.36;41.01
71194;BME280;58903;47.210;8.618;2023-05-29T04:46:47;94115.19;;;28.37;41.34
71194;BME280;58903;47.210;8.618;2023-05-29T04:49:22;94106.34;;;28.38;40.83
71194;BME280;58903;47.210;8.618;2023-05-29T04:51:48;94113.56;;;28.42;40.82
71194;BME280;58903;47.210;8.618;2023-05-29T04:54:22;94114.13;;;28.40;41.07
71194;BME280;58903;47.210;8.618;2023-05-29T04:56:53;94121.13;;;28.41;41.13
71194;BME280;58903;47.210;8.618;2023-05-29T04:59:20;94123.88;;;28.41;41.44
71194;BME280;58903;47.210;8.618;2023-05-29T05:01:48;94122.41;;;28.40;40.70
71194;BME280;58903;47.210;8.618;2023-05-29T05:04:18;94121.66;;;28.40;41.29
71194;BME280;58903;47.210;8.618;2023-05-29T05:07:00;94122.94;;;28.38;40.69
71194;BME280;58903;47.210;8.618;2023-05-29T05:09:34;94124.22;;;28.38;40.88
71194;BME280;58903;47.210;8.618;2023-05-29T05:15:14;94130.31;;;28.36;41.04
71194;BME280;58903;47.210;8.618;2023-05-29T05:17:58;94126.78;;;28.35;40.73
71194;BME280;58903;47.210;8.618;2023-05-29T05:21:00;94130.06;;;28.34;41.28
71194;BME280;58903;47.210;8.618;2023-05-29T05:23:43;94129.56;;;28.35;40.50
71194;BME280;58903;47.210;8.618;2023-05-29T05:26:46;94126.59;;;28.33;41.14
71194;BME280;58903;47.210;8.618;2023-05-29T05:29:29;94125.84;;;28.33;41.17
71194;BME280;58903;47.210;8.618;2023-05-29T05:32:15;94131.03;;;28.36;40.58
71194;BME280;58903;47.210;8.618;2023-05-29T05:34:57;94126.25;;;28.37;40.87
71194;BME280;58903;47.210;8.618;2023-05-29T05:37:34;94135.09;;;28.35;40.39
71194;BME280;58903;47.210;8.618;2023-05-29T05:40:14;94133.59;;;28.34;40.46
71194;BME280;58903;47.210;8.618;2023-05-29T05:43:01;94130.63;;;28.32;40.68
71194;BME280;58903;47.210;8.618;2023-05-29T05:45:31;94146.91;;;28.36;40.57
71194;BME280;58903;47.210;8.618;2023-05-29T05:48:17;94130.81;;;28.34;40.92
71194;BME280;58903;47.210;8.618;2023-05-29T05:51:06;94145.06;;;28.38;40.52
71194;BME280;58903;47.210;8.618;2023-05-29T05:53:51;94139.00;;;28.40;40.70
71194;BME280;58903;47.210;8.618;2023-05-29T05:56:20;94141.78;;;28.40;40.36
71194;BME280;58903;47.210;8.618;2023-05-29T05:59:13;94147.53;;;28.42;40.17
71194;BME280;58903;47.210;8.618;2023-05-29T06:04:55;94148.78;;;28.41;40.64
71194;BME280;58903;47.210;8.618;2023-05-29T06:07:21;94150.09;;;28.40;40.32
71194;BME280;58903;47.210;8.618;2023-05-29T06:09:49;94160.94;;;28.38;40.78
71194;BME280;58903;47.210;8.618;2023-05-29T06:12:19;94151.56;;;28.41;40.33
71194;BME280;58903;47.210;8.618;2023-05-29T06:15:23;94152.50;;;28.44;40.33
71194;BME280;58903;47.210;8.618;2023-05-29T06:17:58;94157.28;;;28.43;40.38
71194;BME280;58903;47.210;8.618;2023-05-29T06:20:55;94164.53;;;28.46;40.16
71194;BME280;58903;47.210;8.618;2023-05-29T06:23:24;94158.78;;;28.44;40.39
71194;BME280;58903;47.210;8.618;2023-05-29T06:26:13;94162.09;;;28.43;40.37
71194;BME280;58903;47.210;8.618;2023-05-29T06:28:53;94163.38;;;28.42;40.46
71194;BME280;58903;47.210;8.618;2023-05-29T06:31:28;94159.84;;;28.41;40.51
71194;BME280;58903;47.210;8.618;2023-05-29T06:37:03;94158.38;;;28.40;40.21
71194;BME280;58903;47.210;8.618;2023-05-29T06:39:44;94161.16;;;28.40;40.31
71194;BME280;58903;47.210;8.618;2023-05-29T06:42:22;94161.88;;;28.41;39.77
71194;BME280;58903;47.210;8.618;2023-05-29T06:45:05;94164.63;;;28.41;39.90
71194;BME280;58903;47.210;8.618;2023-05-29T06:47:49;94166.47;;;28.38;40.33
71194;BME280;58903;47.210;8.618;2023-05-29T06:50:25;94169.03;;;28.36;40.52
71194;BME280;58903;47.210;8.618;2023-05-29T06:53:18;94164.56;;;28.33;39.54
71194;BME280;58903;47.210;8.618;2023-05-29T06:55:47;94158.63;;;28.29;39.69
71194;BME280;58903;47.210;8.618;2023-05-29T06:58:44;94169.69;;;28.29;39.23
71194;BME280;58903;47.210;8.618;2023-05-29T07:01:32;94158.91;;;28.25;39.86
71194;BME280;58903;47.210;8.618;2023-05-29T07:04:03;94161.81;;;28.20;39.68
71194;BME280;58903;47.210;8.618;2023-05-29T07:06:40;94162.56;;;28.20;39.49
71194;BME280;58903;47.210;8.618;2023-05-29T07:09:18;94172.97;;;28.27;39.22
71194;BME280;58903;47.210;8.618;2023-05-29T07:12:06;94170.72;;;28.26;39.56
71194;BME280;58903;47.210;8.618;2023-05-29T07:15:04;94179.25;;;28.28;39.76
71194;BME280;58903;47.210;8.618;2023-05-29T07:17:45;94174.78;;;28.25;39.49
71194;BME280;58903;47.210;8.618;2023-05-29T07:20:12;94178.81;;;28.24;39.59
71194;BME280;58903;47.210;8.618;2023-05-29T07:22:55;94181.78;;;28.26;39.31
71194;BME280;58903;47.210;8.618;2023-05-29T07:25:48;94180.53;;;28.27;39.40
71194;BME280;58903;47.210;8.618;2023-05-29T07:28:31;94177.66;;;28.19;39.84
71194;BME280;58903;47.210;8.618;2023-05-29T07:31:31;94182.63;;;28.21;39.34
71194;BME280;58903;47.210;8.618;2023-05-29T07:34:40;94181.16;;;28.20;39.34
71194;BME280;58903;47.210;8.618;2023-05-29T07:37:08;94179.38;;;28.22;39.71
71194;BME280;58903;47.210;8.618;2023-05-29T07:39:38;94188.72;;;28.19;39.97
71194;BME280;58903;47.210;8.618;2023-05-29T07:42:46;94181.16;;;28.20;39.40
71194;BME280;58903;47.210;8.618;2023-05-29T07:45:17;94184.47;;;28.18;39.60
71194;BME280;58903;47.210;8.618;2023-05-29T07:47:57;94179.47;;;28.17;39.96
71194;BME280;58903;47.210;8.618;2023-05-29T07:50:51;94177.44;;;28.17;39.74
71194;BME280;58903;47.210;8.618;2023-05-29T07:53:28;94190.00;;;28.18;40.43
71194;BME280;58903;47.210;8.618;2023-05-29T07:59:15;94182.88;;;28.23;39.85
71194;BME280;58903;47.210;8.618;2023-05-29T08:01:47;94185.84;;;28.25;39.96
71194;BME280;58903;47.210;8.618;2023-05-29T08:07:36;94183.28;;;28.27;40.51
71194;BME280;58903;47.210;8.618;2023-05-29T08:10:05;94182.97;;;28.30;40.46
71194;BME280;58903;47.210;8.618;2023-05-29T08:13:05;94184.47;;;28.31;40.68
71194;BME280;58903;47.210;8.618;2023-05-29T08:15:50;94187.53;;;28.28;40.54
71194;BME280;58903;47.210;8.618;2023-05-29T08:19:06;94192.75;;;28.31;40.43
71194;BME280;58903;47.210;8.618;2023-05-29T08:21:50;94189.56;;;28.27;40.30
71194;BME280;58903;47.210;8.618;2023-05-29T08:24:18;94193.28;;;28.30;40.32
71194;BME280;58903;47.210;8.618;2023-05-29T08:27:15;94184.78;;;28.28;40.40
71194;BME280;58903;47.210;8.618;2023-05-29T08:29:45;94192.56;;;28.29;40.75
71194;BME280;58903;47.210;8.618;2023-05-29T08:32:18;94184.97;;;28.30;40.55
71194;BME280;58903;47.210;8.618;2023-05-29T08:35:19;94187.75;;;28.30;40.84
71194;BME280;58903;47.210;8.618;2023-05-29T08:37:48;94190.31;;;28.28;40.63
71194;BME280;58903;47.210;8.618;2023-05-29T08:40:14;94187.75;;;28.30;40.46
71194;BME280;58903;47.210;8.618;2023-05-29T08:42:51;94189.34;;;28.25;40.70
71194;BME280;58903;47.210;8.618;2023-05-29T08:45:36;94180.75;;;28.29;40.01
71194;BME280;58903;47.210;8.618;2023-05-29T08:48:09;94182.00;;;28.28;40.04
71194;BME280;58903;47.210;8.618;2023-05-29T08:50:44;94194.56;;;28.29;39.60
71194;BME280;58903;47.210;8.618;2023-05-29T08:53:21;94192.84;;;28.26;39.68
71194;BME280;58903;47.210;8.618;2023-05-29T08:55:50;94190.31;;;28.28;39.63
71194;BME280;58903;47.210;8.618;2023-05-29T08:58:26;94192.75;;;28.31;39.57
71194;BME280;58903;47.210;8.618;2023-05-29T09:01:23;94186.91;;;28.35;39.60
71194;BME280;58903;47.210;8.618;2023-05-29T09:03:52;94199.88;;;28.40;39.77
71194;BME280;58903;47.210;8.618;2023-05-29T09:09:14;94201.69;;;28.38;39.86
71194;BME280;58903;47.210;8.618;2023-05-29T09:11:41;94191.78;;;28.42;39.59
71194;BME280;58903;47.210;8.618;2023-05-29T09:14:32;94199.00;;;28.45;39.82
71194;BME280;58903;47.210;8.618;2023-05-29T09:17:13;94199.44;;;28.49;39.78
71194;BME280;58903;47.210;8.618;2023-05-29T09:19:42;94203.88;;;28.52;39.68
71194;BME280;58903;47.210;8.618;2023-05-29T09:22:13;94199.84;;;28.53;38.96
71194;BME280;58903;47.210;8.618;2023-05-29T09:24:55;94208.06;;;28.59;39.08
71194;BME280;58903;47.210;8.618;2023-05-29T09:27:29;94211.03;;;28.61;39.26
71194;BME280;58903;47.210;8.618;2023-05-29T09:33:17;94201.06;;;28.58;39.14
71194;BME280;58903;47.210;8.618;2023-05-29T09:36:19;94205.84;;;28.57;39.09
71194;BME280;58903;47.210;8.618;2023-05-29T09:38:55;94200.31;;;28.57;39.36
71194;BME280;58903;47.210;8.618;2023-05-29T09:41:53;94203.28;;;28.59;39.33
71194;BME280;58903;47.210;8.618;2023-05-29T09:44:34;94199.22;;;28.60;39.68
71194;BME280;58903;47.210;8.618;2023-05-29T09:47:41;94196.69;;;28.62;39.90
71194;BME280;58903;47.210;8.618;2023-05-29T09:50:45;94197.94;;;28.61;39.49
71194;BME280;58903;47.210;8.618;2023-05-29T09:53:51;94193.16;;;28.62;38.60
71194;BME280;58903;47.210;8.618;2023-05-29T09:57:28;94188.16;;;28.60;39.02
71194;BME280;58903;47.210;8.618;2023-05-29T09:59:54;94195.94;;;28.62;39.29
71194;BME280;58903;47.210;8.618;2023-05-29T10:02:24;94190.91;;;28.60;39.07
71194;BME280;58903;47.210;8.618;2023-05-29T10:05:23;94184.66;;;28.60;38.81
71194;BME280;58903;47.210;8.618;2023-05-29T10:07:53;94177.50;;;28.64;38.54
71194;BME280;58903;47.210;8.618;2023-05-29T10:10:25;94180.06;;;28.62;38.56
71194;BME280;58903;47.210;8.618;2023-05-29T10:12:55;94184.53;;;28.65;38.55
71194;BME280;58903;47.210;8.618;2023-05-29T10:15:31;94172.69;;;28.65;39.09
71194;BME280;58903;47.210;8.618;2023-05-29T10:18:03;94183.66;;;28.70;38.69
71194;BME280;58903;47.210;8.618;2023-05-29T10:20:47;94187.38;;;28.73;39.20
71194;BME280;58903;47.210;8.618;2023-05-29T10:23:37;94184.28;;;28.76;37.89
71194;BME280;58903;47.210;8.618;2023-05-29T10:26:25;94180.25;;;28.77;38.34
71194;BME280;58903;47.210;8.618;2023-05-29T10:32:56;94177.88;;;28.81;38.77
71194;BME280;58903;47.210;8.618;2023-05-29T10:35:48;94171.59;;;28.81;38.11
71194;BME280;58903;47.210;8.618;2023-05-29T10:38:18;94176.38;;;28.80;38.05
71194;BME280;58903;47.210;8.618;2023-05-29T10:40:49;94173.63;;;28.80;38.03
71194;BME280;58903;47.210;8.618;2023-05-29T10:43:35;94166.81;;;28.81;37.36
71194;BME280;58903;47.210;8.618;2023-05-29T10:46:05;94171.06;;;28.82;37.69
71194;BME280;58903;47.210;8.618;2023-05-29T10:48:37;94169.03;;;28.83;37.51
71194;BME280;58903;47.210;8.618;2023-05-29T10:51:06;94167.03;;;28.83;37.48
71194;BME280;58903;47.210;8.618;2023-05-29T10:53:37;94164.44;;;28.85;37.16
71194;BME280;58903;47.210;8.618;2023-05-29T11:01:59;94158.16;;;28.85;37.68
71194;BME280;58903;47.210;8.618;2023-05-29T11:05:03;94158.72;;;28.83;37.57
71194;BME280;58903;47.210;8.618;2023-05-29T11:07:58;94164.44;;;28.85;36.85
71194;BME280;58903;47.210;8.618;2023-05-29T11:10:58;94163.34;;;28.88;37.04
71194;BME280;58903;47.210;8.618;2023-05-29T11:16:35;94157.31;;;28.90;37.13
71194;BME280;58903;47.210;8.618;2023-05-29T11:19:09;94156.00;;;28.91;37.07
71194;BME280;58903;47.210;8.618;2023-05-29T11:24:23;94155.28;;;28.90;36.97
71194;BME280;58903;47.210;8.618;2023-05-29T11:27:01;94151.03;;;28.89;37.05
71194;BME280;58903;47.210;8.618;2023-05-29T11:29:42;94153.44;;;28.93;37.89
71194;BME280;58903;47.210;8.618;2023-05-29T11:32:33;94155.50;;;28.92;36.80
71194;BME280;58903;47.210;8.618;2023-05-29T11:35:29;94161.44;;;28.96;37.46
71194;BME280;58903;47.210;8.618;2023-05-29T11:38:03;94154.59;;;28.97;37.38
71194;BME280;58903;47.210;8.618;2023-05-29T11:40:36;94156.84;;;28.99;37.85
71194;BME280;58903;47.210;8.618;2023-05-29T11:43:05;94156.09;;;28.98;37.52
71194;BME280;58903;47.210;8.618;2023-05-29T11:45:42;94151.84;;;28.97;37.90
71194;BME280;58903;47.210;8.618;2023-05-29T11:48:16;94152.03;;;28.99;37.01
71194;BME280;58903;47.210;8.618;2023-05-29T11:51:11;94155.75;;;29.02;37.74
71194;BME280;58903;47.210;8.618;2023-05-29T11:53:57;94156.50;;;29.02;37.90
71194;BME280;58903;47.210;8.618;2023-05-29T11:56:52;94155.75;;;29.02;37.27
71194;BME280;58903;47.210;8.618;2023-05-29T11:59:42;94152.97;;;29.02;37.47
71194;BME280;58903;47.210;8.618;2023-05-29T12:02:58;94154.06;;;28.99;38.09
71194;BME280;58903;47.210;8.618;2023-05-29T12:05:50;94147.44;;;29.02;37.71
71194;BME280;58903;47.210;8.618;2023-05-29T12:08:35;94158.41;;;29.07;37.44
71194;BME280;58903;47.210;8.618;2023-05-29T12:11:23;94159.13;;;29.08;37.95
71194;BME280;58903;47.210;8.618;2023-05-29T12:14:12;94146.22;;;29.10;37.63
71194;BME280;58903;47.210;8.618;2023-05-29T12:17:09;94144.41;;;29.13;37.50
71194;BME280;58903;47.210;8.618;2023-05-29T12:19:34;94143.13;;;29.14;37.04
71194;BME280;58903;47.210;8.618;2023-05-29T12:22:15;94148.91;;;29.16;36.92
71194;BME280;58903;47.210;8.618;2023-05-29T12:24:54;94151.13;;;29.18;37.77
71194;BME280;58903;47.210;8.618;2023-05-29T12:27:31;94138.97;;;29.21;37.65
71194;BME280;58903;47.210;8.618;2023-05-29T12:30:30;94147.28;;;29.21;37.41
71194;BME280;58903;47.210;8.618;2023-05-29T12:33:36;94146.00;;;29.22;38.26
71194;BME280;58903;47.210;8.618;2023-05-29T12:36:27;94154.09;;;29.20;37.83
71194;BME280;58903;47.210;8.618;2023-05-29T12:39:11;94138.59;;;29.17;37.59
71194;BME280;58903;47.210;8.618;2023-05-29T12:41:55;94151.34;;;29.20;37.90
71194;BME280;58903;47.210;8.618;2023-05-29T12:45:11;94137.47;;;29.20;38.18
71194;BME280;58903;47.210;8.618;2023-05-29T12:48:07;94140.44;;;29.22;38.45
71194;BME280;58903;47.210;8.618;2023-05-29T12:50:37;94132.34;;;29.24;37.84
71194;BME280;58903;47.210;8.618;2023-05-29T12:53:56;94132.34;;;29.24;37.93
71194;BME280;58903;47.210;8.618;2023-05-29T12:57:07;94133.84;;;29.25;37.64
71194;BME280;58903;47.210;8.618;2023-05-29T12:59:51;94140.34;;;29.27;38.19
71194;BME280;58903;47.210;8.618;2023-05-29T13:03:26;94142.00;;;29.30;37.98
71194;BME280;58903;47.210;8.618;2023-05-29T13:06:03;94144.78;;;29.30;38.27
71194;BME280;58903;47.210;8.618;2023-05-29T13:09:07;94143.31;;;29.29;37.95
71194;BME280;58903;47.210;8.618;2023-05-29T13:14:50;94147.22;;;29.34;38.19
71194;BME280;58903;47.210;8.618;2023-05-29T13:17:47;94141.47;;;29.32;38.87
71194;BME280;58903;47.210;8.618;2023-05-29T13:23:38;94143.16;;;29.35;38.33
71194;BME280;58903;47.210;8.618;2023-05-29T13:26:35;94135.22;;;29.39;38.15
71194;BME280;58903;47.210;8.618;2023-05-29T13:31:57;94129.50;;;29.37;38.60
71194;BME280;58903;47.210;8.618;2023-05-29T13:34:28;94137.28;;;29.38;38.66
71194;BME280;58903;47.210;8.618;2023-05-29T13:37:42;94143.22;;;29.42;38.06
71194;BME280;58903;47.210;8.618;2023-05-29T13:40:21;94141.19;;;29.43;38.68
71194;BME280;58903;47.210;8.618;2023-05-29T13:43:01;94138.06;;;29.46;38.17
71194;BME280;58903;47.210;8.618;2023-05-29T13:45:33;94136.25;;;29.49;38.78
71194;BME280;58903;47.210;8.618;2023-05-29T13:48:24;94130.16;;;29.50;39.13
71194;BME280;58903;47.210;8.618;2023-05-29T13:51:39;94130.34;;;29.52;38.52
71194;BME280;58903;47.210;8.618;2023-05-29T13:54:18;94130.00;;;29.56;38.58
71194;BME280;58903;47.210;8.618;2023-05-29T14:00:15;94132.25;;;29.57;38.76
71194;BME280;58903;47.210;8.618;2023-05-29T14:02:59;94119.34;;;29.60;38.29
71194;BME280;58903;47.210;8.618;2023-05-29T14:11:21;94111.22;;;29.62;39.09
71194;BME280;58903;47.210;8.618;2023-05-29T14:14:03;94123.78;;;29.63;38.17
71194;BME280;58903;47.210;8.618;2023-05-29T14:17:04;94121.59;;;29.69;38.91
71194;BME280;58903;47.210;8.618;2023-05-29T14:19:43;94116.28;;;29.71;38.67
71194;BME280;58903;47.210;8.618;2023-05-29T14:25:28;94110.72;;;29.71;38.65
71194;BME280;58903;47.210;8.618;2023-05-29T14:28:16;94117.97;;;29.74;37.25
71194;BME280;58903;47.210;8.618;2023-05-29T14:31:09;94110.94;;;29.73;37.76
71194;BME280;58903;47.210;8.618;2023-05-29T14:33:49;94116.34;;;29.78;38.21
71194;BME280;58903;47.210;8.618;2023-05-29T14:36:47;94118.03;;;29.82;38.13
71194;BME280;58903;47.210;8.618;2023-05-29T14:39:36;94118.03;;;29.82;38.67
71194;BME280;58903;47.210;8.618;2023-05-29T14:42:03;94107.47;;;29.80;37.75
71194;BME280;58903;47.210;8.618;2023-05-29T14:44:32;94113.41;;;29.84;37.82
71194;BME280;58903;47.210;8.618;2023-05-29T14:47:14;94120.63;;;29.87;37.82
71194;BME280;58903;47.210;8.618;2023-05-29T14:50:17;94117.31;;;29.89;37.38
71194;BME280;58903;47.210;8.618;2023-05-29T14:52:54;94115.47;;;29.91;37.48
71194;BME280;58903;47.210;8.618;2023-05-29T14:55:46;94114.00;;;29.90;37.83
71194;BME280;58903;47.210;8.618;2023-05-29T14:58:31;94112.19;;;29.93;36.58
71194;BME280;58903;47.210;8.618;2023-05-29T15:01:34;94116.97;;;29.92;36.54
71194;BME280;58903;47.210;8.618;2023-05-29T15:04:20;94119.19;;;29.94;37.27
71194;BME280;58903;47.210;8.618;2023-05-29T15:06:57;94121.97;;;29.94;37.96
71194;BME280;58903;47.210;8.618;2023-05-29T15:13:01;94134.75;;;29.97;37.60
71194;BME280;58903;47.210;8.618;2023-05-29T15:15:38;94122.53;;;29.92;38.09
71194;BME280;58903;47.210;8.618;2023-05-29T15:18:36;94122.53;;;29.92;38.33
71194;BME280;58903;47.210;8.618;2023-05-29T15:24:09;94118.63;;;29.95;37.20
71194;BME280;58903;47.210;8.618;2023-05-29T15:26:46;94121.09;;;29.99;37.02
71194;BME280;58903;47.210;8.618;2023-05-29T15:29:46;94110.94;;;30.01;37.35
71194;BME280;58903;47.210;8.618;2023-05-29T15:32:19;94117.75;;;30.00;36.99
71194;BME280;58903;47.210;8.618;2023-05-29T15:34:53;94121.47;;;30.03;37.27